Terminal Aerodrome Forecast
Issued by NWS

Home | Current Version | Previous Version | Text Only | Print | Product List | Glossary On
Versions: 1 2 3 4 5 6 7 8 9 10 11 12
000
FTUS45 KREV 230523
TAFTVL
TAF
KTVL 230523Z 2306/2406 VRB03KT P6SM SKC
     FM231900 04008KT P6SM SCT080
     FM232300 20008KT P6SM FEW080=

USA.gov is the U.S. government's official web portal to all federal, state and local government web resources and services.